sensor_id;sensor_type;location;lat;lon;timestamp;P1;durP1;ratioP1;P2;durP2;ratioP2
78312;SDS011;67568;47.438;21.408;2023-04-08T00:02:09;24.65;;;13.20;;
78312;SDS011;67568;47.438;21.408;2023-04-08T00:04:37;26.47;;;14.27;;
78312;SDS011;67568;47.438;21.408;2023-04-08T00:07:05;23.38;;;12.95;;
78312;SDS011;67568;47.438;21.408;2023-04-08T00:09:32;23.20;;;13.77;;
78312;SDS011;67568;47.438;21.408;2023-04-08T00:11:59;24.60;;;13.00;;
78312;SDS011;67568;47.438;21.408;2023-04-08T00:14:25;22.35;;;12.80;;
78312;SDS011;67568;47.438;21.408;2023-04-08T00:16:52;21.00;;;12.57;;
78312;SDS011;67568;47.438;21.408;2023-04-08T00:19:19;23.98;;;13.68;;
78312;SDS011;67568;47.438;21.408;2023-04-08T00:21:45;28.95;;;13.57;;
78312;SDS011;67568;47.438;21.408;2023-04-08T00:24:12;22.27;;;12.48;;
78312;SDS011;67568;47.438;21.408;2023-04-08T00:26:38;20.75;;;12.10;;
78312;SDS011;67568;47.438;21.408;2023-04-08T00:29:05;22.23;;;12.87;;
78312;SDS011;67568;47.438;21.408;2023-04-08T00:31:32;21.42;;;13.77;;
78312;SDS011;67568;47.438;21.408;2023-04-08T00:33:58;22.60;;;13.60;;
78312;SDS011;67568;47.438;21.408;2023-04-08T00:36:25;23.60;;;13.60;;
78312;SDS011;67568;47.438;21.408;2023-04-08T00:38:51;23.90;;;13.27;;
78312;SDS011;67568;47.438;21.408;2023-04-08T00:41:18;23.63;;;14.00;;
78312;SDS011;67568;47.438;21.408;2023-04-08T00:43:45;22.25;;;12.93;;
78312;SDS011;67568;47.438;21.408;2023-04-08T00:46:11;23.35;;;13.05;;
78312;SDS011;67568;47.438;21.408;2023-04-08T00:48:38;22.63;;;13.27;;
78312;SDS011;67568;47.438;21.408;2023-04-08T00:51:05;22.52;;;12.75;;
78312;SDS011;67568;47.438;21.408;2023-04-08T00:53:33;21.00;;;12.57;;
78312;SDS011;67568;47.438;21.408;2023-04-08T00:55:59;22.27;;;13.65;;
78312;SDS011;67568;47.438;21.408;2023-04-08T00:58:26;24.27;;;13.00;;
78312;SDS011;67568;47.438;21.408;2023-04-08T01:00:55;20.75;;;13.13;;
78312;SDS011;67568;47.438;21.408;2023-04-08T01:03:33;19.73;;;12.63;;
78312;SDS011;67568;47.438;21.408;2023-04-08T01:06:31;20.40;;;12.23;;
78312;SDS011;67568;47.438;21.408;2023-04-08T01:09:05;22.85;;;13.18;;
78312;SDS011;67568;47.438;21.408;2023-04-08T01:11:33;21.88;;;12.45;;
78312;SDS011;67568;47.438;21.408;2023-04-08T01:14:01;21.23;;;12.45;;
78312;SDS011;67568;47.438;21.408;2023-04-08T01:16:31;22.52;;;13.20;;
78312;SDS011;67568;47.438;21.408;2023-04-08T01:18:59;22.67;;;13.53;;
78312;SDS011;67568;47.438;21.408;2023-04-08T01:21:27;22.58;;;12.50;;
78312;SDS011;67568;47.438;21.408;2023-04-08T01:24:08;22.55;;;12.68;;
78312;SDS011;67568;47.438;21.408;2023-04-08T01:26:58;20.20;;;11.90;;
78312;SDS011;67568;47.438;21.408;2023-04-08T01:29:26;21.95;;;13.02;;
78312;SDS011;67568;47.438;21.408;2023-04-08T01:31:54;23.87;;;12.57;;
78312;SDS011;67568;47.438;21.408;2023-04-08T01:34:23;21.13;;;11.98;;
78312;SDS011;67568;47.438;21.408;2023-04-08T01:36:50;21.15;;;12.38;;
78312;SDS011;67568;47.438;21.408;2023-04-08T01:39:18;22.67;;;12.63;;
78312;SDS011;67568;47.438;21.408;2023-04-08T01:41:46;19.83;;;11.90;;
78312;SDS011;67568;47.438;21.408;2023-04-08T01:44:14;24.00;;;13.27;;
78312;SDS011;67568;47.438;21.408;2023-04-08T01:46:43;25.10;;;13.15;;
78312;SDS011;67568;47.438;21.408;2023-04-08T01:49:10;22.95;;;13.52;;
78312;SDS011;67568;47.438;21.408;2023-04-08T01:51:40;22.30;;;13.45;;
78312;SDS011;67568;47.438;21.408;2023-04-08T01:54:07;21.13;;;13.10;;
78312;SDS011;67568;47.438;21.408;2023-04-08T01:56:35;21.90;;;13.07;;
78312;SDS011;67568;47.438;21.408;2023-04-08T01:59:05;21.55;;;12.77;;
78312;SDS011;67568;47.438;21.408;2023-04-08T02:01:35;20.88;;;11.95;;
78312;SDS011;67568;47.438;21.408;2023-04-08T02:04:03;25.55;;;13.70;;
78312;SDS011;67568;47.438;21.408;2023-04-08T02:06:30;23.60;;;13.38;;
78312;SDS011;67568;47.438;21.408;2023-04-08T02:08:57;21.83;;;12.67;;
78312;SDS011;67568;47.438;21.408;2023-04-08T02:11:25;20.60;;;12.10;;
78312;SDS011;67568;47.438;21.408;2023-04-08T02:13:52;22.45;;;13.00;;
78312;SDS011;67568;47.438;21.408;2023-04-08T02:16:22;25.00;;;14.05;;
78312;SDS011;67568;47.438;21.408;2023-04-08T02:18:57;22.45;;;13.20;;
78312;SDS011;67568;47.438;21.408;2023-04-08T02:21:30;21.67;;;12.33;;
78312;SDS011;67568;47.438;21.408;2023-04-08T02:24:03;21.35;;;12.70;;
78312;SDS011;67568;47.438;21.408;2023-04-08T02:26:32;21.17;;;12.60;;
78312;SDS011;67568;47.438;21.408;2023-04-08T02:29:01;21.65;;;13.23;;
78312;SDS011;67568;47.438;21.408;2023-04-08T02:31:30;21.42;;;13.05;;
78312;SDS011;67568;47.438;21.408;2023-04-08T02:33:59;21.53;;;13.37;;
78312;SDS011;67568;47.438;21.408;2023-04-08T02:36:26;21.08;;;13.35;;
78312;SDS011;67568;47.438;21.408;2023-04-08T02:38:53;25.50;;;15.00;;
78312;SDS011;67568;47.438;21.408;2023-04-08T02:41:19;25.58;;;14.95;;
78312;SDS011;67568;47.438;21.408;2023-04-08T02:43:46;23.88;;;13.30;;
78312;SDS011;67568;47.438;21.408;2023-04-08T02:46:13;24.53;;;13.77;;
78312;SDS011;67568;47.438;21.408;2023-04-08T02:48:40;21.00;;;13.13;;
78312;SDS011;67568;47.438;21.408;2023-04-08T02:51:06;26.55;;;15.88;;
78312;SDS011;67568;47.438;21.408;2023-04-08T02:53:33;23.88;;;14.93;;
78312;SDS011;67568;47.438;21.408;2023-04-08T02:55:59;21.88;;;13.40;;
78312;SDS011;67568;47.438;21.408;2023-04-08T02:58:26;21.47;;;13.03;;
78312;SDS011;67568;47.438;21.408;2023-04-08T03:00:53;22.65;;;12.70;;
78312;SDS011;67568;47.438;21.408;2023-04-08T03:03:20;23.90;;;13.70;;
78312;SDS011;67568;47.438;21.408;2023-04-08T03:05:47;22.80;;;13.32;;
78312;SDS011;67568;47.438;21.408;2023-04-08T03:08:16;24.05;;;13.35;;
78312;SDS011;67568;47.438;21.408;2023-04-08T03:10:43;22.20;;;12.80;;
78312;SDS011;67568;47.438;21.408;2023-04-08T03:13:10;22.80;;;12.98;;
78312;SDS011;67568;47.438;21.408;2023-04-08T03:15:36;24.20;;;13.23;;
78312;SDS011;67568;47.438;21.408;2023-04-08T03:18:03;27.10;;;15.77;;
78312;SDS011;67568;47.438;21.408;2023-04-08T03:20:29;25.38;;;14.52;;
78312;SDS011;67568;47.438;21.408;2023-04-08T03:22:56;24.27;;;14.23;;
78312;SDS011;67568;47.438;21.408;2023-04-08T03:25:23;24.83;;;13.48;;
78312;SDS011;67568;47.438;21.408;2023-04-08T03:27:49;22.05;;;13.02;;
78312;SDS011;67568;47.438;21.408;2023-04-08T03:30:16;24.05;;;13.00;;
78312;SDS011;67568;47.438;21.408;2023-04-08T03:32:43;22.95;;;12.55;;
78312;SDS011;67568;47.438;21.408;2023-04-08T03:35:12;25.40;;;14.40;;
78312;SDS011;67568;47.438;21.408;2023-04-08T03:37:39;23.80;;;14.25;;
78312;SDS011;67568;47.438;21.408;2023-04-08T03:40:06;21.67;;;13.05;;
78312;SDS011;67568;47.438;21.408;2023-04-08T03:42:33;22.67;;;13.25;;
78312;SDS011;67568;47.438;21.408;2023-04-08T03:45:00;22.90;;;13.45;;
78312;SDS011;67568;47.438;21.408;2023-04-08T03:47:26;22.03;;;13.30;;
78312;SDS011;67568;47.438;21.408;2023-04-08T03:49:53;25.23;;;13.98;;
78312;SDS011;67568;47.438;21.408;2023-04-08T03:52:20;28.75;;;14.43;;
78312;SDS011;67568;47.438;21.408;2023-04-08T03:54:47;22.55;;;12.77;;
78312;SDS011;67568;47.438;21.408;2023-04-08T03:57:14;22.05;;;13.02;;
78312;SDS011;67568;47.438;21.408;2023-04-08T03:59:43;22.57;;;13.00;;
78312;SDS011;67568;47.438;21.408;2023-04-08T04:02:10;25.33;;;13.45;;
78312;SDS011;67568;47.438;21.408;2023-04-08T04:04:36;22.35;;;13.50;;
78312;SDS011;67568;47.438;21.408;2023-04-08T04:07:03;23.85;;;13.57;;
78312;SDS011;67568;47.438;21.408;2023-04-08T04:09:30;22.73;;;13.93;;
78312;SDS011;67568;47.438;21.408;2023-04-08T04:11:56;23.33;;;13.37;;
78312;SDS011;67568;47.438;21.408;2023-04-08T04:14:23;23.15;;;13.45;;
78312;SDS011;67568;47.438;21.408;2023-04-08T04:16:49;23.85;;;13.68;;
78312;SDS011;67568;47.438;21.408;2023-04-08T04:19:16;20.60;;;13.15;;
78312;SDS011;67568;47.438;21.408;2023-04-08T04:21:43;26.30;;;13.93;;
78312;SDS011;67568;47.438;21.408;2023-04-08T04:24:10;25.70;;;14.20;;
78312;SDS011;67568;47.438;21.408;2023-04-08T04:26:36;23.88;;;14.18;;
78312;SDS011;67568;47.438;21.408;2023-04-08T04:29:05;26.95;;;15.68;;
78312;SDS011;67568;47.438;21.408;2023-04-08T04:31:33;26.70;;;14.68;;
78312;SDS011;67568;47.438;21.408;2023-04-08T04:34:00;24.92;;;14.10;;
78312;SDS011;67568;47.438;21.408;2023-04-08T04:36:27;24.50;;;14.30;;
78312;SDS011;67568;47.438;21.408;2023-04-08T04:38:54;26.90;;;15.38;;
78312;SDS011;67568;47.438;21.408;2023-04-08T04:41:21;31.25;;;16.42;;
78312;SDS011;67568;47.438;21.408;2023-04-08T04:43:48;31.33;;;16.95;;
78312;SDS011;67568;47.438;21.408;2023-04-08T04:46:14;32.28;;;16.98;;
78312;SDS011;67568;47.438;21.408;2023-04-08T04:48:41;26.63;;;15.07;;
78312;SDS011;67568;47.438;21.408;2023-04-08T04:51:07;24.58;;;14.25;;
78312;SDS011;67568;47.438;21.408;2023-04-08T04:53:34;27.40;;;13.93;;
78312;SDS011;67568;47.438;21.408;2023-04-08T04:56:01;22.13;;;12.55;;
78312;SDS011;67568;47.438;21.408;2023-04-08T04:58:28;19.77;;;11.90;;
78312;SDS011;67568;47.438;21.408;2023-04-08T05:00:55;22.50;;;12.40;;
78312;SDS011;67568;47.438;21.408;2023-04-08T05:03:22;21.58;;;11.80;;
78312;SDS011;67568;47.438;21.408;2023-04-08T05:05:50;22.42;;;12.82;;
78312;SDS011;67568;47.438;21.408;2023-04-08T05:08:17;20.70;;;12.30;;
78312;SDS011;67568;47.438;21.408;2023-04-08T05:10:44;24.38;;;13.45;;
78312;SDS011;67568;47.438;21.408;2023-04-08T05:13:11;19.33;;;11.33;;
78312;SDS011;67568;47.438;21.408;2023-04-08T05:15:38;19.83;;;11.45;;
78312;SDS011;67568;47.438;21.408;2023-04-08T05:18:04;22.73;;;12.18;;
78312;SDS011;67568;47.438;21.408;2023-04-08T05:20:31;20.63;;;11.65;;
78312;SDS011;67568;47.438;21.408;2023-04-08T05:22:57;19.88;;;11.27;;
78312;SDS011;67568;47.438;21.408;2023-04-08T05:25:24;22.43;;;11.57;;
78312;SDS011;67568;47.438;21.408;2023-04-08T05:27:51;18.52;;;11.35;;
78312;SDS011;67568;47.438;21.408;2023-04-08T05:30:17;21.83;;;12.27;;
78312;SDS011;67568;47.438;21.408;2023-04-08T05:32:44;20.38;;;11.75;;
78312;SDS011;67568;47.438;21.408;2023-04-08T05:35:11;19.83;;;11.40;;
78312;SDS011;67568;47.438;21.408;2023-04-08T05:37:37;20.27;;;10.70;;
78312;SDS011;67568;47.438;21.408;2023-04-08T05:40:04;19.52;;;10.70;;
78312;SDS011;67568;47.438;21.408;2023-04-08T05:42:31;16.88;;;9.70;;
78312;SDS011;67568;47.438;21.408;2023-04-08T05:44:58;22.23;;;11.90;;
78312;SDS011;67568;47.438;21.408;2023-04-08T05:47:24;19.67;;;10.85;;
78312;SDS011;67568;47.438;21.408;2023-04-08T05:49:51;16.77;;;10.13;;
78312;SDS011;67568;47.438;21.408;2023-04-08T05:52:18;19.05;;;11.07;;
78312;SDS011;67568;47.438;21.408;2023-04-08T05:54:45;20.10;;;11.60;;
78312;SDS011;67568;47.438;21.408;2023-04-08T05:57:11;18.08;;;10.73;;
78312;SDS011;67568;47.438;21.408;2023-04-08T05:59:38;17.23;;;10.50;;
78312;SDS011;67568;47.438;21.408;2023-04-08T06:02:04;28.23;;;13.77;;
78312;SDS011;67568;47.438;21.408;2023-04-08T06:04:31;25.80;;;14.32;;
78312;SDS011;67568;47.438;21.408;2023-04-08T06:06:58;21.83;;;11.38;;
78312;SDS011;67568;47.438;21.408;2023-04-08T06:09:25;20.65;;;11.55;;
78312;SDS011;67568;47.438;21.408;2023-04-08T06:11:52;17.48;;;10.77;;
78312;SDS011;67568;47.438;21.408;2023-04-08T06:14:18;19.90;;;10.00;;
78312;SDS011;67568;47.438;21.408;2023-04-08T06:16:45;17.38;;;10.50;;
78312;SDS011;67568;47.438;21.408;2023-04-08T06:19:11;18.67;;;10.50;;
78312;SDS011;67568;47.438;21.408;2023-04-08T06:21:38;16.70;;;10.05;;
78312;SDS011;67568;47.438;21.408;2023-04-08T06:24:05;18.30;;;10.27;;
78312;SDS011;67568;47.438;21.408;2023-04-08T06:26:31;16.63;;;9.90;;
78312;SDS011;67568;47.438;21.408;2023-04-08T06:28:58;19.08;;;10.82;;
78312;SDS011;67568;47.438;21.408;2023-04-08T06:31:24;18.85;;;11.13;;
78312;SDS011;67568;47.438;21.408;2023-04-08T06:33:51;19.95;;;10.73;;
78312;SDS011;67568;47.438;21.408;2023-04-08T06:36:18;19.23;;;11.48;;
78312;SDS011;67568;47.438;21.408;2023-04-08T06:38:44;19.83;;;10.90;;
78312;SDS011;67568;47.438;21.408;2023-04-08T06:41:11;19.70;;;11.85;;
78312;SDS011;67568;47.438;21.408;2023-04-08T06:43:38;26.75;;;16.25;;
78312;SDS011;67568;47.438;21.408;2023-04-08T06:46:04;19.58;;;12.55;;
78312;SDS011;67568;47.438;21.408;2023-04-08T06:48:31;27.38;;;14.32;;
78312;SDS011;67568;47.438;21.408;2023-04-08T06:50:58;19.73;;;11.20;;
78312;SDS011;67568;47.438;21.408;2023-04-08T06:53:26;21.15;;;11.38;;
78312;SDS011;67568;47.438;21.408;2023-04-08T06:55:53;20.77;;;11.77;;
78312;SDS011;67568;47.438;21.408;2023-04-08T06:58:20;20.88;;;12.45;;
78312;SDS011;67568;47.438;21.408;2023-04-08T07:00:47;20.85;;;11.38;;
78312;SDS011;67568;47.438;21.408;2023-04-08T07:03:13;15.57;;;9.20;;
78312;SDS011;67568;47.438;21.408;2023-04-08T07:05:40;16.75;;;10.20;;
78312;SDS011;67568;47.438;21.408;2023-04-08T07:08:07;15.68;;;9.57;;
78312;SDS011;67568;47.438;21.408;2023-04-08T07:10:34;14.88;;;8.55;;
78312;SDS011;67568;47.438;21.408;2023-04-08T07:13:02;16.40;;;9.15;;
78312;SDS011;67568;47.438;21.408;2023-04-08T07:15:31;15.43;;;9.13;;
78312;SDS011;67568;47.438;21.408;2023-04-08T07:17:57;14.43;;;8.20;;
78312;SDS011;67568;47.438;21.408;2023-04-08T07:20:24;14.57;;;8.70;;
78312;SDS011;67568;47.438;21.408;2023-04-08T07:22:51;15.50;;;8.68;;
78312;SDS011;67568;47.438;21.408;2023-04-08T07:25:20;15.05;;;8.40;;
78312;SDS011;67568;47.438;21.408;2023-04-08T07:27:47;16.60;;;8.87;;
78312;SDS011;67568;47.438;21.408;2023-04-08T07:30:15;14.52;;;8.13;;
78312;SDS011;67568;47.438;21.408;2023-04-08T07:32:42;15.23;;;8.90;;
78312;SDS011;67568;47.438;21.408;2023-04-08T07:35:08;18.00;;;9.98;;
78312;SDS011;67568;47.438;21.408;2023-04-08T07:37:35;13.88;;;8.00;;
78312;SDS011;67568;47.438;21.408;2023-04-08T07:40:02;18.10;;;9.83;;
78312;SDS011;67568;47.438;21.408;2023-04-08T07:42:29;16.90;;;9.20;;
78312;SDS011;67568;47.438;21.408;2023-04-08T07:44:55;18.10;;;9.93;;
78312;SDS011;67568;47.438;21.408;2023-04-08T07:47:22;20.83;;;10.50;;
78312;SDS011;67568;47.438;21.408;2023-04-08T07:49:49;19.48;;;11.10;;
78312;SDS011;67568;47.438;21.408;2023-04-08T07:52:15;15.17;;;8.10;;
78312;SDS011;67568;47.438;21.408;2023-04-08T07:54:42;17.75;;;10.18;;
78312;SDS011;67568;47.438;21.408;2023-04-08T07:57:08;18.40;;;9.75;;
78312;SDS011;67568;47.438;21.408;2023-04-08T07:59:38;14.10;;;7.85;;
78312;SDS011;67568;47.438;21.408;2023-04-08T08:02:05;15.60;;;7.63;;
78312;SDS011;67568;47.438;21.408;2023-04-08T08:04:32;16.97;;;10.37;;
78312;SDS011;67568;47.438;21.408;2023-04-08T08:06:59;19.52;;;10.82;;
78312;SDS011;67568;47.438;21.408;2023-04-08T08:09:25;14.32;;;7.93;;
78312;SDS011;67568;47.438;21.408;2023-04-08T08:11:52;14.68;;;7.47;;
78312;SDS011;67568;47.438;21.408;2023-04-08T08:14:19;14.80;;;8.38;;
78312;SDS011;67568;47.438;21.408;2023-04-08T08:16:45;12.43;;;7.50;;
78312;SDS011;67568;47.438;21.408;2023-04-08T08:19:12;11.77;;;6.95;;
78312;SDS011;67568;47.438;21.408;2023-04-08T08:21:39;9.95;;;5.88;;
78312;SDS011;67568;47.438;21.408;2023-04-08T08:24:05;11.45;;;6.70;;
78312;SDS011;67568;47.438;21.408;2023-04-08T08:26:35;10.75;;;5.60;;
78312;SDS011;67568;47.438;21.408;2023-04-08T08:29:02;9.33;;;5.47;;
78312;SDS011;67568;47.438;21.408;2023-04-08T08:31:30;10.68;;;6.13;;
78312;SDS011;67568;47.438;21.408;2023-04-08T08:33:56;9.63;;;5.43;;
78312;SDS011;67568;47.438;21.408;2023-04-08T08:36:23;11.05;;;5.78;;
78312;SDS011;67568;47.438;21.408;2023-04-08T08:38:50;10.15;;;5.72;;
78312;SDS011;67568;47.438;21.408;2023-04-08T08:41:16;13.10;;;7.63;;
78312;SDS011;67568;47.438;21.408;2023-04-08T08:43:43;12.35;;;7.07;;
78312;SDS011;67568;47.438;21.408;2023-04-08T08:46:10;11.20;;;6.40;;
78312;SDS011;67568;47.438;21.408;2023-04-08T08:48:36;15.95;;;8.02;;
78312;SDS011;67568;47.438;21.408;2023-04-08T08:51:10;10.45;;;5.38;;
78312;SDS011;67568;47.438;21.408;2023-04-08T08:53:38;13.20;;;9.57;;
78312;SDS011;67568;47.438;21.408;2023-04-08T08:56:07;11.07;;;6.22;;
78312;SDS011;67568;47.438;21.408;2023-04-08T08:58:37;8.40;;;4.90;;
78312;SDS011;67568;47.438;21.408;2023-04-08T09:01:47;11.18;;;7.10;;
78312;SDS011;67568;47.438;21.408;2023-04-08T09:06:38;9.97;;;5.70;;
78312;SDS011;67568;47.438;21.408;2023-04-08T09:09:05;9.05;;;4.72;;
78312;SDS011;67568;47.438;21.408;2023-04-08T09:11:32;9.57;;;5.40;;
78312;SDS011;67568;47.438;21.408;2023-04-08T09:14:00;8.98;;;4.88;;
78312;SDS011;67568;47.438;21.408;2023-04-08T09:16:27;9.18;;;4.97;;
78312;SDS011;67568;47.438;21.408;2023-04-08T09:18:57;9.80;;;5.17;;
78312;SDS011;67568;47.438;21.408;2023-04-08T09:21:34;9.25;;;4.90;;
78312;SDS011;67568;47.438;21.408;2023-04-08T09:24:01;8.30;;;4.45;;
78312;SDS011;67568;47.438;21.408;2023-04-08T09:26:27;9.65;;;4.53;;
78312;SDS011;67568;47.438;21.408;2023-04-08T09:29:04;7.55;;;3.83;;
78312;SDS011;67568;47.438;21.408;2023-04-08T09:31:56;8.67;;;4.90;;
78312;SDS011;67568;47.438;21.408;2023-04-08T09:34:25;9.57;;;4.45;;
78312;SDS011;67568;47.438;21.408;2023-04-08T09:36:53;9.45;;;5.25;;
78312;SDS011;67568;47.438;21.408;2023-04-08T09:39:20;7.93;;;4.50;;
78312;SDS011;67568;47.438;21.408;2023-04-08T09:41:47;9.00;;;4.60;;
78312;SDS011;67568;47.438;21.408;2023-04-08T09:44:15;10.70;;;5.50;;
78312;SDS011;67568;47.438;21.408;2023-04-08T09:49:24;9.25;;;4.60;;
78312;SDS011;67568;47.438;21.408;2023-04-08T10:00:24;8.25;;;4.22;;
78312;SDS011;67568;47.438;21.408;2023-04-08T10:03:12;8.50;;;4.85;;
78312;SDS011;67568;47.438;21.408;2023-04-08T10:05:52;9.85;;;4.80;;
78312;SDS011;67568;47.438;21.408;2023-04-08T10:08:19;13.20;;;6.15;;
78312;SDS011;67568;47.438;21.408;2023-04-08T10:10:49;8.07;;;4.13;;
78312;SDS011;67568;47.438;21.408;2023-04-08T10:13:16;6.70;;;3.50;;
78312;SDS011;67568;47.438;21.408;2023-04-08T10:15:43;7.60;;;3.50;;
78312;SDS011;67568;47.438;21.408;2023-04-08T10:23:04;7.60;;;4.50;;
78312;SDS011;67568;47.438;21.408;2023-04-08T10:27:59;9.10;;;4.60;;
78312;SDS011;67568;47.438;21.408;2023-04-08T10:32:54;7.72;;;4.10;;
78312;SDS011;67568;47.438;21.408;2023-04-08T10:35:30;8.00;;;4.10;;
78312;SDS011;67568;47.438;21.408;2023-04-08T10:38:00;8.25;;;4.65;;
78312;SDS011;67568;47.438;21.408;2023-04-08T10:40:27;10.30;;;4.65;;
78312;SDS011;67568;47.438;21.408;2023-04-08T10:42:57;11.10;;;5.43;;
78312;SDS011;67568;47.438;21.408;2023-04-08T10:45:24;8.95;;;4.35;;
78312;SDS011;67568;47.438;21.408;2023-04-08T10:47:50;7.63;;;4.13;;
78312;SDS011;67568;47.438;21.408;2023-04-08T10:50:18;9.70;;;4.65;;
78312;SDS011;67568;47.438;21.408;2023-04-08T10:52:48;7.55;;;4.00;;
78312;SDS011;67568;47.438;21.408;2023-04-08T10:55:22;7.28;;;3.75;;
78312;SDS011;67568;47.438;21.408;2023-04-08T10:57:50;9.57;;;4.50;;
78312;SDS011;67568;47.438;21.408;2023-04-08T11:00:17;10.10;;;5.47;;
78312;SDS011;67568;47.438;21.408;2023-04-08T11:02:44;7.97;;;3.92;;
78312;SDS011;67568;47.438;21.408;2023-04-08T11:05:11;10.73;;;5.00;;
78312;SDS011;67568;47.438;21.408;2023-04-08T11:07:41;9.68;;;5.10;;
78312;SDS011;67568;47.438;21.408;2023-04-08T11:10:08;7.90;;;4.35;;
78312;SDS011;67568;47.438;21.408;2023-04-08T11:12:34;7.37;;;4.00;;
78312;SDS011;67568;47.438;21.408;2023-04-08T11:15:02;8.80;;;4.65;;
78312;SDS011;67568;47.438;21.408;2023-04-08T11:17:30;7.20;;;3.80;;
78312;SDS011;67568;47.438;21.408;2023-04-08T11:20:00;6.80;;;3.72;;
78312;SDS011;67568;47.438;21.408;2023-04-08T11:22:27;8.25;;;3.70;;
78312;SDS011;67568;47.438;21.408;2023-04-08T11:24:57;8.07;;;4.10;;
78312;SDS011;67568;47.438;21.408;2023-04-08T11:27:24;7.63;;;4.13;;
78312;SDS011;67568;47.438;21.408;2023-04-08T11:29:54;7.65;;;4.32;;
78312;SDS011;67568;47.438;21.408;2023-04-08T11:32:21;7.80;;;4.22;;
78312;SDS011;67568;47.438;21.408;2023-04-08T11:34:48;9.10;;;4.85;;
78312;SDS011;67568;47.438;21.408;2023-04-08T11:37:15;7.43;;;4.20;;
78312;SDS011;67568;47.438;21.408;2023-04-08T11:39:42;9.30;;;4.30;;
78312;SDS011;67568;47.438;21.408;2023-04-08T11:42:24;8.00;;;3.92;;
78312;SDS011;67568;47.438;21.408;2023-04-08T11:44:52;9.30;;;4.60;;
78312;SDS011;67568;47.438;21.408;2023-04-08T11:47:19;7.47;;;4.07;;
78312;SDS011;67568;47.438;21.408;2023-04-08T11:49:46;8.13;;;4.40;;
78312;SDS011;67568;47.438;21.408;2023-04-08T11:52:13;7.72;;;4.38;;
78312;SDS011;67568;47.438;21.408;2023-04-08T11:54:42;7.63;;;4.03;;
78312;SDS011;67568;47.438;21.408;2023-04-08T11:57:09;8.82;;;4.35;;
78312;SDS011;67568;47.438;21.408;2023-04-08T11:59:36;6.97;;;3.97;;
78312;SDS011;67568;47.438;21.408;2023-04-08T12:02:02;8.97;;;4.47;;
78312;SDS011;67568;47.438;21.408;2023-04-08T12:04:29;7.65;;;4.28;;
78312;SDS011;67568;47.438;21.408;2023-04-08T12:06:56;9.35;;;4.38;;
78312;SDS011;67568;47.438;21.408;2023-04-08T12:09:23;8.15;;;4.72;;
78312;SDS011;67568;47.438;21.408;2023-04-08T12:11:50;8.10;;;4.20;;
78312;SDS011;67568;47.438;21.408;2023-04-08T12:14:17;7.60;;;4.03;;
78312;SDS011;67568;47.438;21.408;2023-04-08T12:16:43;8.43;;;4.47;;
78312;SDS011;67568;47.438;21.408;2023-04-08T12:19:10;9.95;;;4.50;;
78312;SDS011;67568;47.438;21.408;2023-04-08T12:21:36;8.10;;;4.43;;
78312;SDS011;67568;47.438;21.408;2023-04-08T12:24:03;7.78;;;4.30;;
78312;SDS011;67568;47.438;21.408;2023-04-08T12:26:30;8.23;;;4.20;;
78312;SDS011;67568;47.438;21.408;2023-04-08T12:28:56;8.23;;;4.65;;
78312;SDS011;67568;47.438;21.408;2023-04-08T12:31:23;8.75;;;4.80;;
78312;SDS011;67568;47.438;21.408;2023-04-08T12:33:50;8.68;;;4.70;;
78312;SDS011;67568;47.438;21.408;2023-04-08T12:36:17;9.57;;;5.28;;
78312;SDS011;67568;47.438;21.408;2023-04-08T12:38:43;9.80;;;4.93;;
78312;SDS011;67568;47.438;21.408;2023-04-08T12:41:10;9.45;;;5.28;;
78312;SDS011;67568;47.438;21.408;2023-04-08T12:43:37;8.68;;;4.85;;
78312;SDS011;67568;47.438;21.408;2023-04-08T12:46:03;10.63;;;5.60;;
78312;SDS011;67568;47.438;21.408;2023-04-08T12:48:30;19.63;;;11.30;;
78312;SDS011;67568;47.438;21.408;2023-04-08T12:50:56;13.33;;;8.53;;
78312;SDS011;67568;47.438;21.408;2023-04-08T12:53:23;9.10;;;5.82;;
78312;SDS011;67568;47.438;21.408;2023-04-08T12:55:50;9.02;;;5.35;;
78312;SDS011;67568;47.438;21.408;2023-04-08T12:58:16;9.18;;;5.05;;
78312;SDS011;67568;47.438;21.408;2023-04-08T13:00:44;10.70;;;5.40;;
78312;SDS011;67568;47.438;21.408;2023-04-08T13:03:11;9.07;;;5.00;;
78312;SDS011;67568;47.438;21.408;2023-04-08T13:05:38;10.82;;;5.82;;
78312;SDS011;67568;47.438;21.408;2023-04-08T13:08:09;10.57;;;6.10;;
78312;SDS011;67568;47.438;21.408;2023-04-08T13:10:36;9.52;;;5.32;;
78312;SDS011;67568;47.438;21.408;2023-04-08T13:13:03;12.13;;;7.15;;
78312;SDS011;67568;47.438;21.408;2023-04-08T13:15:30;10.10;;;5.80;;
78312;SDS011;67568;47.438;21.408;2023-04-08T13:17:56;9.13;;;5.30;;
78312;SDS011;67568;47.438;21.408;2023-04-08T13:20:23;9.25;;;4.90;;
78312;SDS011;67568;47.438;21.408;2023-04-08T13:22:50;8.00;;;4.85;;
78312;SDS011;67568;47.438;21.408;2023-04-08T13:25:18;10.23;;;5.35;;
78312;SDS011;67568;47.438;21.408;2023-04-08T13:27:44;10.00;;;5.77;;
78312;SDS011;67568;47.438;21.408;2023-04-08T13:30:11;9.20;;;4.88;;
78312;SDS011;67568;47.438;21.408;2023-04-08T13:32:38;8.57;;;4.93;;
78312;SDS011;67568;47.438;21.408;2023-04-08T13:35:05;9.35;;;5.20;;
78312;SDS011;67568;47.438;21.408;2023-04-08T13:37:32;9.82;;;5.65;;
78312;SDS011;67568;47.438;21.408;2023-04-08T13:39:58;9.47;;;5.17;;
78312;SDS011;67568;47.438;21.408;2023-04-08T13:42:25;8.85;;;5.10;;
78312;SDS011;67568;47.438;21.408;2023-04-08T13:44:51;10.73;;;5.53;;
78312;SDS011;67568;47.438;21.408;2023-04-08T13:47:18;8.15;;;4.50;;
78312;SDS011;67568;47.438;21.408;2023-04-08T13:49:44;9.10;;;5.57;;
78312;SDS011;67568;47.438;21.408;2023-04-08T13:52:11;9.63;;;4.83;;
78312;SDS011;67568;47.438;21.408;2023-04-08T13:54:38;10.43;;;5.50;;
78312;SDS011;67568;47.438;21.408;2023-04-08T13:57:04;15.45;;;4.97;;
78312;SDS011;67568;47.438;21.408;2023-04-08T13:59:31;9.52;;;5.10;;
78312;SDS011;67568;47.438;21.408;2023-04-08T14:01:57;10.30;;;4.80;;
78312;SDS011;67568;47.438;21.408;2023-04-08T14:04:24;8.40;;;4.70;;
78312;SDS011;67568;47.438;21.408;2023-04-08T14:06:50;9.18;;;5.22;;
78312;SDS011;67568;47.438;21.408;2023-04-08T14:09:17;9.95;;;5.40;;
78312;SDS011;67568;47.438;21.408;2023-04-08T14:11:45;9.07;;;5.22;;
78312;SDS011;67568;47.438;21.408;2023-04-08T14:14:12;8.88;;;5.15;;
78312;SDS011;67568;47.438;21.408;2023-04-08T14:16:38;8.60;;;4.63;;
78312;SDS011;67568;47.438;21.408;2023-04-08T14:19:05;10.18;;;4.85;;
78312;SDS011;67568;47.438;21.408;2023-04-08T14:21:32;8.93;;;4.97;;
78312;SDS011;67568;47.438;21.408;2023-04-08T14:23:59;9.52;;;4.70;;
78312;SDS011;67568;47.438;21.408;2023-04-08T14:26:28;8.63;;;4.85;;
78312;SDS011;67568;47.438;21.408;2023-04-08T14:28:54;8.67;;;4.80;;
78312;SDS011;67568;47.438;21.408;2023-04-08T14:31:21;8.40;;;4.35;;
78312;SDS011;67568;47.438;21.408;2023-04-08T14:33:47;9.25;;;4.70;;
78312;SDS011;67568;47.438;21.408;2023-04-08T14:36:14;8.80;;;4.80;;
78312;SDS011;67568;47.438;21.408;2023-04-08T14:38:42;10.52;;;4.85;;
78312;SDS011;67568;47.438;21.408;2023-04-08T14:41:08;10.50;;;5.53;;
78312;SDS011;67568;47.438;21.408;2023-04-08T14:43:35;11.10;;;6.07;;
78312;SDS011;67568;47.438;21.408;2023-04-08T14:46:01;10.15;;;5.40;;